Time;durP1;ratioP1;P1;durP2;ratioP2;P2;SDS_P1;SDS_P2;PMS_P1;PMS_P2;Temp;Humidity;BMP_temperature;BMP_pressure;BME280_temperature;BME280_humidity;BME280_pressure;Samples;Min_cycle;Max_cycle;Signal;HPM_P1;HPM_P2
2022/12/09 00:00:33;;;;;;;17.42;11.65;;;2.80;99.90;;;;;;7368764;19;20014;-45
2022/12/09 00:02:59;;;;;;;20.20;12.93;;;2.80;99.90;;;;;;7365722;19;20019;-49
2022/12/09 00:05:26;;;;;;;17.27;11.70;;;2.80;99.90;;;;;;7368393;19;20593;-47
2022/12/09 00:07:52;;;;;;;18.75;12.05;;;2.80;99.90;;;;;;7369325;19;20014;-49
2022/12/09 00:10:18;;;;;;;18.08;12.27;;;2.80;99.90;;;;;;7370541;19;20022;-47
2022/12/09 00:12:45;;;;;;;18.58;12.73;;;2.80;99.90;;;;;;7366369;19;20022;-45
2022/12/09 00:15:11;;;;;;;22.05;12.25;;;2.70;99.90;;;;;;7371897;19;20403;-49
2022/12/09 00:17:37;;;;;;;19.45;12.27;;;2.70;99.90;;;;;;7377467;19;20018;-49
2022/12/09 00:20:04;;;;;;;19.88;12.85;;;2.70;99.90;;;;;;7378858;19;20030;-48
2022/12/09 00:22:31;;;;;;;21.88;12.05;;;2.70;99.90;;;;;;7370711;19;20024;-47
2022/12/09 00:24:57;;;;;;;18.35;12.63;;;2.70;99.90;;;;;;7379378;19;20075;-47
2022/12/09 00:27:23;;;;;;;19.35;12.98;;;2.70;99.90;;;;;;7380842;19;20469;-48
2022/12/09 00:29:49;;;;;;;18.13;12.40;;;2.70;99.90;;;;;;7374120;19;20066;-47
2022/12/09 00:32:18;;;;;;;17.73;11.35;;;2.70;99.90;;;;;;7375058;19;20617;-48
2022/12/09 00:34:44;;;;;;;18.52;11.82;;;2.60;99.90;;;;;;7374532;19;20046;-45
2022/12/09 00:37:11;;;;;;;18.85;12.18;;;2.60;99.90;;;;;;7375979;19;20015;-50
2022/12/09 00:39:37;;;;;;;18.58;12.13;;;2.60;99.90;;;;;;7372629;19;20094;-49
2022/12/09 00:42:03;;;;;;;17.23;11.57;;;2.60;99.90;;;;;;7377013;19;20018;-49
2022/12/09 00:44:31;;;;;;;17.15;11.40;;;2.60;99.90;;;;;;7370865;19;20019;-46
2022/12/09 00:46:57;;;;;;;19.42;12.93;;;2.60;99.90;;;;;;7374008;19;20476;-48
2022/12/09 00:49:24;;;;;;;19.05;12.95;;;2.60;99.90;;;;;;7375768;19;20393;-46
2022/12/09 00:51:52;;;;;;;18.98;12.88;;;2.60;99.90;;;;;;7375404;19;20046;-47
2022/12/09 00:54:19;;;;;;;18.48;12.38;;;2.60;99.90;;;;;;7369372;19;20023;-47
2022/12/09 00:56:45;;;;;;;18.65;12.68;;;2.60;99.90;;;;;;7375275;19;20085;-46
2022/12/09 00:59:11;;;;;;;19.58;12.82;;;2.60;99.90;;;;;;7376422;19;20056;-45
2022/12/09 01:01:37;;;;;;;18.42;12.23;;;2.50;99.90;;;;;;7375968;19;20387;-45
2022/12/09 01:04:07;;;;;;;21.25;13.35;;;2.50;99.90;;;;;;7369562;19;20022;-46
2022/12/09 01:06:36;;;;;;;16.55;11.57;;;2.50;99.90;;;;;;7375365;19;20066;-47
2022/12/09 01:09:02;;;;;;;19.00;12.50;;;2.60;99.90;;;;;;7377981;19;20017;-50
2022/12/09 01:11:36;;;;;;;20.98;14.38;;;2.60;99.90;;;;;;7368923;19;20018;-49
2022/12/09 01:14:03;;;;;;;20.90;13.20;;;2.60;99.90;;;;;;7377034;19;20024;-46
2022/12/09 01:16:37;;;;;;;21.95;12.75;;;2.50;99.90;;;;;;7372071;19;20022;-47
2022/12/09 01:19:06;;;;;;;18.25;12.95;;;2.50;99.90;;;;;;7376087;19;20024;-44
2022/12/09 01:21:33;;;;;;;25.20;14.43;;;2.50;99.90;;;;;;7370656;19;20021;-44
2022/12/09 01:24:00;;;;;;;18.20;12.77;;;2.40;99.90;;;;;;7372136;19;20653;-48
2022/12/09 01:26:27;;;;;;;20.10;11.98;;;2.40;99.90;;;;;;7369706;19;20014;-45
2022/12/09 01:28:55;;;;;;;19.00;12.43;;;2.30;99.90;;;;;;7371347;19;20312;-44
2022/12/09 01:31:25;;;;;;;19.15;12.85;;;2.30;99.90;;;;;;7367927;19;20069;-51
2022/12/09 01:33:52;;;;;;;16.02;11.05;;;2.10;99.90;;;;;;7372125;19;20029;-46
2022/12/09 01:36:23;;;;;;;17.23;11.50;;;2.10;99.90;;;;;;7375819;19;20016;-46
2022/12/09 01:38:49;;;;;;;17.02;11.93;;;2.00;99.90;;;;;;7373266;19;20501;-47
2022/12/09 01:41:17;;;;;;;18.60;12.65;;;1.90;99.90;;;;;;7371857;19;20056;-50
2022/12/09 01:43:44;;;;;;;18.80;12.35;;;1.90;99.90;;;;;;7369815;19;20022;-46
2022/12/09 01:46:13;;;;;;;18.70;11.52;;;1.80;99.90;;;;;;7375350;19;20018;-45
2022/12/09 01:48:45;;;;;;;20.50;13.15;;;1.80;99.90;;;;;;7374131;19;20057;-47
2022/12/09 01:51:17;;;;;;;18.15;11.07;;;1.70;99.90;;;;;;7375104;19;20130;-48
2022/12/09 01:53:48;;;;;;;18.60;12.43;;;1.60;99.90;;;;;;7371344;19;20450;-45
2022/12/09 01:56:24;;;;;;;17.88;11.95;;;1.60;99.90;;;;;;7376153;19;20094;-47
2022/12/09 01:58:52;;;;;;;19.50;13.10;;;1.60;99.90;;;;;;7370512;19;20041;-46
2022/12/09 02:01:21;;;;;;;20.52;12.38;;;1.50;99.90;;;;;;7372859;19;20024;-45
2022/12/09 02:03:48;;;;;;;19.55;13.20;;;1.40;99.90;;;;;;7365014;19;20094;-48
2022/12/09 02:06:19;;;;;;;19.55;12.30;;;1.40;99.90;;;;;;7375048;19;20528;-49
2022/12/09 02:08:49;;;;;;;20.65;12.38;;;1.30;99.90;;;;;;7372979;19;20046;-50
2022/12/09 02:11:17;;;;;;;19.63;12.90;;;1.20;99.90;;;;;;7369956;19;20038;-48
2022/12/09 02:14:23;;;;;;;18.83;12.63;;;1.20;99.90;;;;;;7365729;19;20065;-48
2022/12/09 02:17:30;;;;;;;19.60;11.30;;;1.10;99.90;;;;;;7372321;19;20039;-45
2022/12/09 02:20:20;;;;;;;22.48;13.52;;;1.10;99.90;;;;;;7367362;19;20025;-45
2022/12/09 02:23:09;;;;;;;19.95;12.00;;;1.10;99.90;;;;;;7369208;19;20042;-45
2022/12/09 02:25:39;;;;;;;20.80;12.38;;;1.10;99.90;;;;;;7375350;19;20026;-45
2022/12/09 02:28:30;;;;;;;20.80;13.48;;;1.10;99.90;;;;;;7372000;19;20093;-46
2022/12/09 02:31:47;;;;;;;19.52;12.68;;;1.20;99.90;;;;;;7361777;19;20734;-45
2022/12/09 02:34:30;;;;;;;20.13;12.25;;;1.20;99.90;;;;;;7366618;19;20014;-46
2022/12/09 02:37:07;;;;;;;20.98;13.88;;;1.20;99.90;;;;;;7371962;19;20019;-45
2022/12/09 02:39:57;;;;;;;21.45;13.43;;;1.20;99.90;;;;;;7367153;19;20025;-45
2022/12/09 02:42:29;;;;;;;23.17;13.75;;;1.30;99.90;;;;;;7369700;19;20023;-46
2022/12/09 02:45:00;;;;;;;23.92;15.23;;;1.30;99.90;;;;;;7365637;19;20378;-50
2022/12/09 02:47:30;;;;;;;21.33;14.07;;;1.30;99.90;;;;;;7372862;19;20018;-48
2022/12/09 02:50:03;;;;;;;21.90;14.02;;;1.40;99.90;;;;;;7366937;19;20026;-49
2022/12/09 02:52:32;;;;;;;22.63;14.10;;;1.40;99.90;;;;;;7371061;19;20384;-49
2022/12/09 02:55:02;;;;;;;21.38;14.70;;;1.40;99.90;;;;;;7366308;19;21220;-49
2022/12/09 02:57:33;;;;;;;25.05;14.50;;;1.40;99.90;;;;;;7370860;19;20022;-48
2022/12/09 03:00:00;;;;;;;22.23;14.40;;;1.40;99.90;;;;;;7368215;19;20070;-48
2022/12/09 03:02:38;;;;;;;25.27;14.90;;;1.50;99.90;;;;;;7372155;19;20018;-45
2022/12/09 03:05:12;;;;;;;23.00;14.32;;;1.50;99.90;;;;;;7371182;19;20696;-48
2022/12/09 03:07:50;;;;;;;23.88;15.10;;;1.50;99.90;;;;;;7373222;19;20010;-46
2022/12/09 03:10:24;;;;;;;19.63;13.23;;;1.50;99.90;;;;;;7374111;19;20015;-48
2022/12/09 03:12:59;;;;;;;24.00;14.15;;;1.60;99.90;;;;;;7368169;19;20085;-47
2022/12/09 03:15:29;;;;;;;21.95;13.68;;;1.60;99.90;;;;;;7367744;19;20025;-48
2022/12/09 03:18:00;;;;;;;23.35;14.10;;;1.60;99.90;;;;;;7370671;19;20022;-49
2022/12/09 03:20:29;;;;;;;21.05;13.48;;;1.60;99.90;;;;;;7371093;19;20019;-45
2022/12/09 03:23:01;;;;;;;22.65;13.40;;;1.70;99.90;;;;;;7363671;19;20022;-45
2022/12/09 03:25:32;;;;;;;25.90;15.15;;;1.60;99.90;;;;;;7370248;19;20090;-48
2022/12/09 03:28:03;;;;;;;22.03;13.77;;;1.60;99.90;;;;;;7367831;19;20021;-47
2022/12/09 03:30:38;;;;;;;25.05;14.05;;;1.60;99.90;;;;;;7371315;19;20422;-50
2022/12/09 03:33:04;;;;;;;21.25;12.77;;;1.60;99.90;;;;;;7367490;19;20414;-46
2022/12/09 03:35:38;;;;;;;20.52;13.60;;;1.60;99.90;;;;;;7369105;19;20032;-49
2022/12/09 03:38:09;;;;;;;23.33;14.52;;;1.60;99.90;;;;;;7372459;19;20086;-49
2022/12/09 03:40:36;;;;;;;22.40;14.27;;;1.60;99.90;;;;;;7364873;19;20044;-57
2022/12/09 03:43:17;;;;;;;22.10;13.90;;;1.60;99.90;;;;;;7366571;19;20082;-50
2022/12/09 03:45:45;;;;;;;23.00;13.60;;;1.60;99.90;;;;;;7369982;19;20502;-50
2022/12/09 03:48:11;;;;;;;21.85;13.73;;;1.50;99.90;;;;;;7372054;19;20014;-45
2022/12/09 03:51:01;;;;;;;20.92;13.02;;;1.50;99.90;;;;;;7370428;19;20015;-48
2022/12/09 03:53:59;;;;;;;21.20;13.30;;;1.50;99.90;;;;;;7379969;19;20037;-50
2022/12/09 03:56:29;;;;;;;21.42;12.52;;;1.50;99.90;;;;;;7376304;19;20026;-49
2022/12/09 03:58:59;;;;;;;21.67;13.68;;;1.50;99.90;;;;;;7377330;19;20019;-45
2022/12/09 04:01:27;;;;;;;24.02;14.40;;;1.50;99.90;;;;;;7374779;19;20110;-48
2022/12/09 04:03:55;;;;;;;23.67;14.75;;;1.40;99.90;;;;;;7375172;19;20014;-52
2022/12/09 04:06:21;;;;;;;22.85;13.57;;;1.50;99.90;;;;;;7374907;19;20451;-48
2022/12/09 04:08:48;;;;;;;22.92;13.82;;;1.40;99.90;;;;;;7371177;19;20038;-49
2022/12/09 04:11:15;;;;;;;22.80;13.05;;;1.40;99.90;;;;;;7376153;19;20014;-47
2022/12/09 04:13:41;;;;;;;22.65;14.80;;;1.50;99.90;;;;;;7375098;19;20015;-48
2022/12/09 04:16:08;;;;;;;22.52;12.73;;;1.50;99.90;;;;;;7375019;19;20433;-49
2022/12/09 04:18:34;;;;;;;24.13;14.00;;;1.40;99.90;;;;;;7372546;19;20022;-47
2022/12/09 04:21:06;;;;;;;26.33;15.77;;;1.40;99.90;;;;;;7378396;19;20018;-46
2022/12/09 04:23:37;;;;;;;23.48;15.13;;;1.40;99.90;;;;;;7371582;19;20030;-47
2022/12/09 04:26:04;;;;;;;24.30;14.95;;;1.30;99.90;;;;;;7370625;19;20547;-49
2022/12/09 04:28:30;;;;;;;22.20;13.60;;;1.30;99.90;;;;;;7369989;19;20025;-48
2022/12/09 04:30:56;;;;;;;22.73;14.50;;;1.20;99.90;;;;;;7373154;19;20022;-46
2022/12/09 04:33:24;;;;;;;20.25;13.63;;;1.20;99.90;;;;;;7375626;19;20490;-44
2022/12/09 04:35:50;;;;;;;23.35;14.75;;;1.10;99.90;;;;;;7373470;19;20168;-45
2022/12/09 04:38:17;;;;;;;25.08;14.02;;;1.10;99.90;;;;;;7377987;19;20019;-49
2022/12/09 04:40:43;;;;;;;21.33;13.98;;;1.00;99.90;;;;;;7366909;19;20029;-46
2022/12/09 04:43:10;;;;;;;20.88;13.68;;;1.00;99.90;;;;;;7376893;19;20019;-45
2022/12/09 04:45:36;;;;;;;23.88;13.93;;;0.90;99.90;;;;;;7374985;19;20501;-46
2022/12/09 04:48:02;;;;;;;24.30;13.75;;;0.80;99.90;;;;;;7370939;19;20051;-45
2022/12/09 04:50:29;;;;;;;23.58;14.35;;;0.80;99.90;;;;;;7376882;19;20032;-48
2022/12/09 04:52:55;;;;;;;26.63;15.52;;;0.80;99.90;;;;;;7373815;19;20022;-44
2022/12/09 04:55:21;;;;;;;22.63;14.52;;;0.70;99.90;;;;;;7373773;19;20030;-45
2022/12/09 04:57:47;;;;;;;22.50;13.32;;;0.60;99.90;;;;;;7368963;19;20392;-43
2022/12/09 05:00:14;;;;;;;23.30;14.93;;;0.60;99.90;;;;;;7377877;19;20026;-45
2022/12/09 05:02:40;;;;;;;22.15;13.35;;;0.50;99.90;;;;;;7372458;19;20019;-47
2022/12/09 05:05:07;;;;;;;23.45;13.80;;;0.50;99.90;;;;;;7373935;19;20478;-44
2022/12/09 05:07:33;;;;;;;24.02;14.18;;;0.50;99.90;;;;;;7372300;19;20486;-45
2022/12/09 05:09:59;;;;;;;23.23;13.75;;;0.40;99.90;;;;;;7375766;19;20095;-43
2022/12/09 05:12:27;;;;;;;26.13;13.68;;;0.40;99.90;;;;;;7374328;19;20014;-46
2022/12/09 05:14:53;;;;;;;25.00;13.93;;;0.40;99.90;;;;;;7372407;19;20498;-46
2022/12/09 05:17:19;;;;;;;22.50;14.13;;;0.40;99.90;;;;;;7372354;19;20450;-45
2022/12/09 05:19:50;;;;;;;21.85;14.18;;;0.30;99.90;;;;;;7370277;19;20014;-45
2022/12/09 05:22:17;;;;;;;21.60;12.98;;;0.30;99.90;;;;;;7372626;19;20014;-46
2022/12/09 05:24:45;;;;;;;22.67;13.25;;;0.30;99.90;;;;;;7376106;19;20483;-45
2022/12/09 05:27:13;;;;;;;24.77;13.93;;;0.30;99.90;;;;;;7371298;19;20499;-46
2022/12/09 05:29:39;;;;;;;21.33;13.32;;;0.30;99.90;;;;;;7363873;19;20376;-48
2022/12/09 05:32:06;;;;;;;24.65;13.55;;;0.30;99.90;;;;;;7357110;19;20052;-45
2022/12/09 05:34:32;;;;;;;20.00;12.20;;;0.30;99.90;;;;;;7355407;19;20042;-48
2022/12/09 05:36:58;;;;;;;20.30;13.52;;;0.20;99.90;;;;;;7354936;19;20014;-47
2022/12/09 05:39:25;;;;;;;23.50;13.80;;;0.20;99.90;;;;;;7350849;19;20026;-46
2022/12/09 05:41:51;;;;;;;22.92;14.13;;;0.20;99.90;;;;;;7352515;19;20018;-46
2022/12/09 05:44:17;;;;;;;22.15;13.23;;;0.10;99.90;;;;;;7361596;19;20463;-47
2022/12/09 05:46:44;;;;;;;21.98;13.27;;;0.00;99.90;;;;;;7359309;19;20022;-45
2022/12/09 05:49:11;;;;;;;24.45;13.98;;;0.00;99.90;;;;;;7360677;19;20022;-46
2022/12/09 05:51:37;;;;;;;27.92;15.45;;;-0.10;99.90;;;;;;7352756;19;20042;-46
2022/12/09 05:54:05;;;;;;;31.08;17.38;;;-0.10;99.90;;;;;;7362288;19;20048;-45
2022/12/09 05:56:31;;;;;;;26.73;15.07;;;-0.10;99.90;;;;;;7356999;19;20893;-50
2022/12/09 05:59:01;;;;;;;28.50;15.13;;;-0.10;99.90;;;;;;7358084;19;20021;-47
2022/12/09 06:01:27;;;;;;;26.67;15.75;;;-0.10;99.90;;;;;;7357484;19;20038;-46
2022/12/09 06:03:53;;;;;;;30.27;14.70;;;-0.20;99.90;;;;;;7358195;19;20453;-46
2022/12/09 06:06:26;;;;;;;27.63;15.30;;;-0.20;99.90;;;;;;7355834;19;20018;-45
2022/12/09 06:09:00;;;;;;;26.65;15.13;;;-0.20;99.90;;;;;;7361526;19;20026;-47
2022/12/09 06:11:26;;;;;;;33.03;16.40;;;-0.20;99.90;;;;;;7354109;19;20018;-45
2022/12/09 06:13:55;;;;;;;30.63;16.27;;;-0.20;99.90;;;;;;7350523;19;20113;-49
2022/12/09 06:16:22;;;;;;;27.02;15.05;;;-0.20;99.90;;;;;;7357202;19;20026;-49
2022/12/09 06:18:49;;;;;;;32.05;17.20;;;-0.20;99.90;;;;;;7354167;19;20022;-48
2022/12/09 06:21:17;;;;;;;28.65;16.10;;;-0.30;99.90;;;;;;7354606;19;20129;-48
2022/12/09 06:23:43;;;;;;;30.35;15.75;;;-0.30;99.90;;;;;;7358256;19;20014;-50
2022/12/09 06:26:24;;;;;;;26.90;15.43;;;-0.30;99.90;;;;;;7355883;19;20023;-50
2022/12/09 06:28:52;;;;;;;30.23;15.90;;;-0.40;99.90;;;;;;7355067;19;20052;-48
2022/12/09 06:31:19;;;;;;;29.98;16.30;;;-0.40;99.90;;;;;;7363226;19;20491;-49
2022/12/09 06:33:46;;;;;;;33.95;16.58;;;-0.40;99.90;;;;;;7363225;19;20111;-50
2022/12/09 06:36:12;;;;;;;32.97;18.90;;;-0.40;99.90;;;;;;7362830;19;20445;-46
2022/12/09 06:38:38;;;;;;;35.42;18.88;;;-0.50;99.90;;;;;;7360670;19;20486;-44
2022/12/09 06:41:10;;;;;;;35.53;18.48;;;-0.50;99.90;;;;;;7354839;19;20079;-50
2022/12/09 06:43:37;;;;;;;35.58;17.48;;;-0.50;99.90;;;;;;7361669;19;20022;-50
2022/12/09 06:46:11;;;;;;;30.20;17.08;;;-0.50;99.90;;;;;;7363027;19;20022;-48
2022/12/09 06:48:37;;;;;;;33.85;18.83;;;-0.60;99.90;;;;;;7361614;19;20027;-49
2022/12/09 06:51:04;;;;;;;33.83;17.88;;;-0.60;99.90;;;;;;7358979;19;20018;-46
2022/12/09 06:53:30;;;;;;;33.42;18.60;;;-0.60;99.90;;;;;;7362138;19;20378;-46
2022/12/09 06:56:07;;;;;;;30.58;17.50;;;-0.60;99.90;;;;;;7360741;19;20450;-45
2022/12/09 06:58:34;;;;;;;31.60;16.88;;;-0.70;99.90;;;;;;7360973;19;20014;-43
2022/12/09 07:01:16;;;;;;;29.30;18.10;;;-0.70;99.90;;;;;;7359520;19;20015;-46
2022/12/09 07:03:45;;;;;;;30.20;17.63;;;-0.70;99.90;;;;;;7361890;19;20527;-48
2022/12/09 07:06:36;;;;;;;29.05;16.75;;;-0.70;99.90;;;;;;7366675;19;20035;-44
2022/12/09 07:09:09;;;;;;;32.38;17.73;;;-0.80;99.90;;;;;;7363344;19;20471;-44
2022/12/09 07:11:36;;;;;;;32.58;18.55;;;-0.80;99.90;;;;;;7361957;19;20354;-47
2022/12/09 07:14:04;;;;;;;33.20;17.13;;;-0.80;99.90;;;;;;7361978;19;20051;-49
2022/12/09 07:16:30;;;;;;;31.40;17.30;;;-0.90;99.90;;;;;;7363677;19;20575;-45
2022/12/09 07:18:57;;;;;;;30.80;17.10;;;-0.90;99.90;;;;;;7362689;19;20078;-45
2022/12/09 07:21:23;;;;;;;32.05;18.55;;;-0.90;99.90;;;;;;7357949;19;20112;-50
2022/12/09 07:23:50;;;;;;;28.60;16.77;;;-0.90;99.90;;;;;;7359457;19;20820;-48
2022/12/09 07:26:19;;;;;;;28.77;17.92;;;-0.90;99.90;;;;;;7361159;19;20143;-45
2022/12/09 07:28:46;;;;;;;30.98;16.88;;;-0.90;99.90;;;;;;7362703;19;20113;-48
2022/12/09 07:31:20;;;;;;;30.98;16.38;;;-0.90;99.90;;;;;;7359196;19;20018;-46
2022/12/09 07:33:47;;;;;;;31.52;17.48;;;-1.00;99.90;;;;;;7355894;19;20010;-47
2022/12/09 07:36:34;;;;;;;32.00;17.30;;;-1.00;99.90;;;;;;7357095;19;20052;-48
2022/12/09 07:39:20;;;;;;;34.00;19.38;;;-1.00;99.90;;;;;;7359958;19;20035;-47
2022/12/09 07:42:07;;;;;;;33.75;17.27;;;-1.00;99.90;;;;;;7360603;19;20018;-45
2022/12/09 07:44:48;;;;;;;30.38;15.98;;;-1.00;99.90;;;;;;7354956;19;20588;-44
2022/12/09 07:47:14;;;;;;;33.60;16.75;;;-1.00;99.90;;;;;;7363228;19;20555;-50
2022/12/09 07:49:43;;;;;;;36.38;18.02;;;-1.00;99.90;;;;;;7359925;19;20018;-44
2022/12/09 07:52:11;;;;;;;39.92;20.13;;;-1.10;99.90;;;;;;7361344;19;20460;-49
2022/12/09 07:54:37;;;;;;;35.63;17.52;;;-1.00;99.90;;;;;;7358885;19;20469;-46
2022/12/09 07:57:03;;;;;;;31.13;17.63;;;-1.00;99.90;;;;;;7361165;19;20494;-51
2022/12/09 07:59:30;;;;;;;33.28;16.15;;;-1.00;99.90;;;;;;7360073;19;20393;-50
2022/12/09 08:01:56;;;;;;;32.78;18.25;;;-1.00;99.90;;;;;;7361235;19;21349;-49
2022/12/09 08:04:22;;;;;;;34.20;19.77;;;-1.00;99.90;;;;;;7355116;19;20023;-53
2022/12/09 08:06:50;;;;;;;31.30;17.38;;;-1.00;99.90;;;;;;7360896;19;20384;-51
2022/12/09 08:09:16;;;;;;;33.75;18.55;;;-0.90;99.90;;;;;;7357073;19;20023;-45
2022/12/09 08:11:43;;;;;;;33.75;18.10;;;-0.80;99.90;;;;;;7356679;19;20017;-51
2022/12/09 08:14:11;;;;;;;32.75;18.10;;;-0.90;99.90;;;;;;7360559;19;20014;-50
2022/12/09 08:16:38;;;;;;;33.72;18.60;;;-0.80;99.90;;;;;;7361518;19;20393;-52
2022/12/09 08:19:04;;;;;;;34.65;18.52;;;-0.80;99.90;;;;;;7360318;19;20489;-49
2022/12/09 08:21:32;;;;;;;32.08;17.83;;;-0.80;99.90;;;;;;7359928;19;20022;-51
2022/12/09 08:24:01;;;;;;;31.23;17.20;;;-0.70;99.90;;;;;;7358897;19;20363;-48
2022/12/09 08:26:29;;;;;;;32.08;17.67;;;-0.70;99.90;;;;;;7361944;19;20027;-47
2022/12/09 08:28:56;;;;;;;35.33;18.70;;;-0.60;99.90;;;;;;7357523;19;20021;-48
2022/12/09 08:31:24;;;;;;;33.88;17.02;;;-0.60;99.90;;;;;;7359849;19;20415;-48
2022/12/09 08:33:51;;;;;;;31.40;18.88;;;-0.50;99.90;;;;;;7359054;19;20042;-48
2022/12/09 08:36:21;;;;;;;31.05;17.30;;;-0.40;99.90;;;;;;7347761;19;20039;-49
2022/12/09 08:38:47;;;;;;;31.08;18.58;;;-0.20;99.90;;;;;;7363019;19;20526;-51
2022/12/09 08:41:20;;;;;;;34.15;18.70;;;-0.10;99.90;;;;;;7360424;19;20046;-45
2022/12/09 08:43:47;;;;;;;34.03;19.30;;;0.00;99.90;;;;;;7359180;19;20099;-46
2022/12/09 08:46:14;;;;;;;28.88;17.30;;;0.10;99.90;;;;;;7364300;19;20015;-49
2022/12/09 08:48:41;;;;;;;29.23;16.88;;;0.10;99.90;;;;;;7363636;19;20025;-48
2022/12/09 08:51:09;;;;;;;30.40;16.88;;;0.10;99.90;;;;;;7359612;19;20015;-51
2022/12/09 08:53:39;;;;;;;28.60;16.60;;;0.20;99.90;;;;;;7361280;19;20350;-51
2022/12/09 08:56:13;;;;;;;28.08;17.30;;;0.30;99.90;;;;;;7365508;19;20589;-51
2022/12/09 08:58:41;;;;;;;33.00;19.25;;;0.40;99.90;;;;;;7360820;19;20014;-47
2022/12/09 09:01:17;;;;;;;35.00;20.13;;;0.60;99.90;;;;;;7363270;19;20025;-46
2022/12/09 09:03:44;;;;;;;33.90;20.88;;;0.70;99.90;;;;;;7361643;19;20584;-50
2022/12/09 09:06:11;;;;;;;43.28;24.05;;;0.80;99.90;;;;;;7361781;19;20022;-51
2022/12/09 09:08:38;;;;;;;39.15;22.35;;;0.80;99.90;;;;;;7363546;19;20022;-48
2022/12/09 09:11:13;;;;;;;40.13;23.10;;;0.80;99.90;;;;;;7362864;19;20034;-46
2022/12/09 09:13:42;;;;;;;44.88;25.27;;;0.90;99.90;;;;;;7360521;19;20024;-46
2022/12/09 09:16:11;;;;;;;45.20;24.77;;;1.00;99.90;;;;;;7357642;19;20121;-48
2022/12/09 09:18:38;;;;;;;47.40;27.83;;;1.00;99.90;;;;;;7363629;19;20585;-48
2022/12/09 09:21:06;;;;;;;53.47;28.85;;;1.10;99.90;;;;;;7357063;19;20128;-50
2022/12/09 09:23:46;;;;;;;56.72;29.52;;;1.20;99.90;;;;;;7359828;19;20462;-47
2022/12/09 09:26:15;;;;;;;64.95;31.58;;;1.10;99.90;;;;;;7358627;19;20639;-47
2022/12/09 09:28:42;;;;;;;64.63;32.88;;;1.30;99.90;;;;;;7355115;19;20014;-46
2022/12/09 09:31:12;;;;;;;76.95;35.47;;;1.30;99.90;;;;;;7359100;19;20395;-50
2022/12/09 09:33:39;;;;;;;67.88;31.05;;;1.30;99.90;;;;;;7354381;19;20376;-47
2022/12/09 09:36:12;;;;;;;67.93;32.08;;;1.40;99.90;;;;;;7356499;19;20701;-50
2022/12/09 09:38:39;;;;;;;76.95;32.22;;;1.40;99.90;;;;;;7350284;19;20114;-51
2022/12/09 09:41:38;;;;;;;66.95;30.95;;;1.40;99.90;;;;;;7353796;19;20051;-48
2022/12/09 09:44:34;;;;;;;79.18;30.30;;;1.30;99.90;;;;;;7354136;19;20047;-51
2022/12/09 09:47:04;;;;;;;117.50;34.45;;;1.40;99.90;;;;;;7358510;19;20018;-46
2022/12/09 09:49:38;;;;;;;;;;;1.40;99.90;;;;;;7358355;19;20022;-51
2022/12/09 09:52:15;;;;;;;86.50;31.85;;;1.30;99.90;;;;;;7358391;19;20464;-46
2022/12/09 09:54:41;;;;;;;165.05;36.40;;;1.40;99.90;;;;;;7361843;19;20018;-47
2022/12/09 09:57:13;;;;;;;105.55;32.92;;;1.30;99.90;;;;;;7362110;19;20428;-46
2022/12/09 10:00:09;;;;;;;190.65;37.83;;;1.40;99.90;;;;;;7357248;19;20022;-49
2022/12/09 10:02:44;;;;;;;151.75;32.67;;;1.30;99.90;;;;;;7359518;19;20042;-45
2022/12/09 10:05:21;;;;;;;133.82;33.08;;;1.40;99.90;;;;;;7361401;19;20014;-46
2022/12/09 10:07:53;;;;;;;175.43;32.22;;;1.40;99.90;;;;;;7345270;19;20022;-49
2022/12/09 10:10:25;;;;;;;122.38;30.70;;;1.30;99.90;;;;;;7356709;19;20022;-48
2022/12/09 10:13:00;;;;;;;87.00;29.48;;;1.30;99.90;;;;;;7360235;19;20025;-48
2022/12/09 10:15:35;;;;;;;93.47;30.38;;;1.30;99.90;;;;;;7361878;19;20021;-49
2022/12/09 10:18:27;;;;;;;139.63;32.67;;;1.20;99.90;;;;;;7361163;19;20255;-48
2022/12/09 10:20:54;;;;;;;93.63;31.15;;;1.30;99.90;;;;;;7353797;19;20015;-48
2022/12/09 10:23:21;;;;;;;80.28;28.23;;;1.30;99.90;;;;;;7353332;19;20569;-48
2022/12/09 10:25:52;;;;;;;90.53;29.88;;;1.30;99.90;;;;;;7361449;19;20025;-45
2022/12/09 10:28:22;;;;;;;60.45;27.25;;;1.30;99.90;;;;;;7359067;19;20413;-47
2022/12/09 10:30:51;;;;;;;61.83;28.25;;;1.30;99.90;;;;;;7355322;19;20026;-46
2022/12/09 10:33:24;;;;;;;68.15;29.20;;;1.40;99.90;;;;;;7356540;19;20866;-44
2022/12/09 10:35:50;;;;;;;79.97;28.67;;;1.30;99.90;;;;;;7355786;19;20477;-44
2022/12/09 10:38:18;;;;;;;63.50;27.73;;;1.30;99.90;;;;;;7362355;19;20723;-49
2022/12/09 10:40:45;;;;;;;60.28;27.58;;;1.40;99.90;;;;;;7357830;19;20514;-49
2022/12/09 10:43:36;;;;;;;68.93;28.60;;;1.40;99.90;;;;;;7352307;19;20253;-48
2022/12/09 10:46:27;;;;;;;75.53;28.55;;;1.30;99.90;;;;;;7350166;19;20046;-50
2022/12/09 10:48:57;;;;;;;60.13;28.08;;;1.20;99.90;;;;;;7355788;19;20028;-46
2022/12/09 10:51:26;;;;;;;53.90;28.50;;;1.20;99.90;;;;;;7354234;19;20046;-46
2022/12/09 10:54:20;;;;;;;62.65;28.15;;;1.30;99.90;;;;;;7348242;19;20014;-48
2022/12/09 10:57:03;;;;;;;52.17;27.30;;;1.30;99.90;;;;;;7352848;19;20034;-47
2022/12/09 10:59:41;;;;;;;55.95;28.17;;;1.40;99.90;;;;;;7359739;19;20033;-47
2022/12/09 11:02:09;;;;;;;63.58;30.88;;;1.50;99.90;;;;;;7351474;19;20048;-52
2022/12/09 11:04:41;;;;;;;62.90;30.23;;;1.50;99.90;;;;;;7350974;19;20025;-48
2022/12/09 11:07:10;;;;;;;61.67;30.83;;;1.60;99.90;;;;;;7357585;19;21517;-46
2022/12/09 11:10:03;;;;;;;56.42;28.58;;;1.60;99.90;;;;;;7353885;19;20044;-46
2022/12/09 11:12:38;;;;;;;55.17;28.60;;;1.60;99.90;;;;;;7361236;19;20029;-50
2022/12/09 11:15:26;;;;;;;59.33;28.75;;;1.70;99.90;;;;;;7358901;19;20102;-46
2022/12/09 11:18:04;;;;;;;60.33;28.20;;;1.80;99.90;;;;;;7359667;19;20022;-50
2022/12/09 11:20:34;;;;;;;54.40;29.17;;;1.80;99.90;;;;;;7359181;19;20022;-46
2022/12/09 11:23:03;;;;;;;53.47;27.77;;;1.90;99.90;;;;;;7356179;19;20018;-46
2022/12/09 11:25:40;;;;;;;53.72;29.70;;;2.00;99.90;;;;;;7355111;19;20015;-47
2022/12/09 11:28:15;;;;;;;;;;;2.00;99.90;;;;;;7358903;19;20010;-50
2022/12/09 11:31:02;;;;;;;45.55;27.23;;;2.10;99.90;;;;;;7356340;19;19922;-46
2022/12/09 11:33:33;;;;;;;50.28;28.55;;;2.00;99.90;;;;;;7354975;19;20047;-44
2022/12/09 11:36:25;;;;;;;47.90;25.85;;;2.10;99.90;;;;;;7354923;19;20027;-43
2022/12/09 11:39:34;;;;;;;43.90;24.70;;;2.20;99.90;;;;;;7355823;19;20561;-44
2022/12/09 11:42:21;;;;;;;37.45;25.02;;;2.60;99.90;;;;;;7354315;19;20577;-45
2022/12/09 11:45:26;;;;;;;37.17;22.40;;;2.60;99.90;;;;;;7349954;19;20029;-44
2022/12/09 11:48:32;;;;;;;41.53;23.45;;;2.80;99.90;;;;;;7355443;19;20458;-47
2022/12/09 11:51:27;;;;;;;38.35;22.52;;;3.20;99.90;;;;;;7356202;19;20018;-45
2022/12/09 11:54:26;;;;;;;37.05;23.40;;;3.20;99.90;;;;;;7355045;19;20434;-46
2022/12/09 11:57:53;;;;;;;37.60;23.05;;;3.60;99.90;;;;;;7359124;19;20034;-44
2022/12/09 12:00:26;;;;;;;33.35;20.65;;;4.10;99.90;;;;;;7351270;19;20018;-47
2022/12/09 12:03:03;;;;;;;33.50;21.83;;;4.20;99.90;;;;;;7362256;19;20526;-47
2022/12/09 12:05:38;;;;;;;31.70;20.23;;;4.30;99.90;;;;;;7355944;19;20026;-48
2022/12/09 12:08:14;;;;;;;30.52;21.13;;;4.40;99.90;;;;;;7360749;19;20282;-48
2022/12/09 12:10:45;;;;;;;33.58;23.10;;;4.50;99.90;;;;;;7355088;19;20019;-47
2022/12/09 12:13:26;;;;;;;32.55;22.08;;;4.50;99.90;;;;;;7358278;19;20925;-45
2022/12/09 12:16:25;;;;;;;36.25;21.88;;;4.20;99.90;;;;;;7362733;19;20389;-45
2022/12/09 12:18:52;;;;;;;35.35;21.67;;;3.90;99.90;;;;;;7360632;19;20603;-45
2022/12/09 12:21:51;;;;;;;34.67;22.85;;;3.80;99.90;;;;;;7358700;19;20441;-43
2022/12/09 12:24:45;;;;;;;32.45;21.38;;;3.70;99.90;;;;;;7361671;19;20042;-44
2022/12/09 12:27:39;;;;;;;34.75;22.58;;;3.50;99.90;;;;;;7362769;19;20376;-45
2022/12/09 12:30:13;;;;;;;33.80;21.58;;;3.30;99.90;;;;;;7362121;19;20022;-48
2022/12/09 12:33:30;;;;;;;36.80;23.23;;;3.20;99.90;;;;;;7347746;19;20451;-46
2022/12/09 12:36:19;;;;;;;38.95;23.60;;;3.20;99.90;;;;;;7365231;19;20018;-47
2022/12/09 12:39:18;;;;;;;38.85;23.67;;;3.30;99.90;;;;;;7363710;19;20057;-44
2022/12/09 12:41:56;;;;;;;36.05;22.85;;;3.40;99.90;;;;;;7357268;19;21449;-47
2022/12/09 12:48:13;;;;;;;34.47;22.33;;;3.90;99.90;;;;;;7356448;19;20029;-47
2022/12/09 12:50:45;;;;;;;33.63;21.10;;;3.80;99.90;;;;;;7361829;19;20985;-43
2022/12/09 12:53:26;;;;;;;34.22;22.55;;;3.70;99.90;;;;;;7365449;19;20025;-44
2022/12/09 12:56:10;;;;;;;34.97;22.05;;;3.50;99.90;;;;;;7359351;19;20117;-44
2022/12/09 12:58:51;;;;;;;38.45;22.55;;;3.40;99.90;;;;;;7367111;19;20025;-46
2022/12/09 13:01:42;;;;;;;34.22;21.70;;;3.20;99.90;;;;;;7360824;19;20037;-44
2022/12/09 13:04:28;;;;;;;35.08;23.77;;;3.10;99.90;;;;;;7357114;19;20018;-47
2022/12/09 13:07:32;;;;;;;31.42;21.10;;;3.00;99.90;;;;;;7361871;19;20458;-44